Time;durP1;ratioP1;P1;durP2;ratioP2;P2;SDS_P1;SDS_P2;PMS_P1;PMS_P2;Temp;Humidity;BMP_temperature;BMP_pressure;BME280_temperature;BME280_humidity;BME280_pressure;Samples;Min_cycle;Max_cycle;Signal;HPM_P1;HPM_P2
2023/07/04 00:11:45;;;;;;;8.07;2.83;;;;;;;;;;4941203;29;20212;-68
2023/07/04 00:18:05;;;;;;;6.27;2.50;;;;;;;;;;4934153;29;20335;-68
2023/07/04 00:28:39;;;;;;;7.60;2.70;;;;;;;;;;4926805;29;20234;-68
2023/07/04 00:44:10;;;;;;;6.60;2.87;;;;;;;;;;4874990;29;20227;-68
2023/07/04 01:31:06;;;;;;;6.30;2.80;;;;;;;;;;5014683;28;20211;-68
2023/07/04 01:37:33;;;;;;;7.70;2.83;;;;;;;;;;5007454;28;20174;-68
2023/07/04 01:44:08;;;;;;;7.00;2.57;;;;;;;;;;5026993;28;20278;-68
2023/07/04 01:50:34;;;;;;;9.50;2.90;;;;;;;;;;4994808;28;20237;-68
2023/07/04 01:57:00;;;;;;;7.03;2.53;;;;;;;;;;5011007;28;20766;-68
2023/07/04 02:03:26;;;;;;;5.77;2.50;;;;;;;;;;4987874;28;20184;-68
2023/07/04 02:09:53;;;;;;;8.50;2.90;;;;;;;;;;5024698;28;20221;-68
2023/07/04 02:25:22;;;;;;;6.90;2.70;;;;;;;;;;4882443;29;20778;-68
2023/07/04 02:35:59;;;;;;;5.83;2.73;;;;;;;;;;4922075;29;21048;-68
2023/07/04 02:46:56;;;;;;;6.80;2.83;;;;;;;;;;4924783;29;20257;-69
2023/07/04 02:53:22;;;;;;;6.83;3.10;;;;;;;;;;4928115;29;20198;-71
2023/07/04 02:59:48;;;;;;;10.47;2.87;;;;;;;;;;4965934;28;20322;-70
2023/07/04 03:06:14;;;;;;;5.90;3.10;;;;;;;;;;4991548;28;20175;-70
2023/07/04 03:12:42;;;;;;;9.10;2.70;;;;;;;;;;4951893;28;20220;-72
2023/07/04 03:23:45;;;;;;;8.97;3.23;;;;;;;;;;4927088;28;20245;-72
2023/07/04 03:38:12;;;;;;;8.87;3.47;;;;;;;;;;4962273;28;20240;-72
2023/07/04 03:44:38;;;;;;;7.63;3.00;;;;;;;;;;4930426;29;20181;-74
2023/07/04 03:51:03;;;;;;;8.77;3.30;;;;;;;;;;4999947;28;20238;-73
2023/07/04 03:57:31;;;;;;;8.00;3.03;;;;;;;;;;4996046;28;20175;-76
2023/07/04 04:03:57;;;;;;;6.63;3.17;;;;;;;;;;4913550;29;20250;-72
2023/07/04 04:10:36;;;;;;;7.80;2.97;;;;;;;;;;5008174;28;20279;-72
2023/07/04 04:17:02;;;;;;;10.13;2.97;;;;;;;;;;5000520;28;20174;-73
2023/07/04 04:23:28;;;;;;;7.53;3.10;;;;;;;;;;5022815;28;20237;-72
2023/07/04 04:29:55;;;;;;;9.70;3.50;;;;;;;;;;4988963;28;20215;-72
2023/07/04 04:51:54;;;;;;;6.47;2.87;;;;;;;;;;4943946;29;20233;-72
2023/07/04 04:58:56;;;;;;;8.43;3.70;;;;;;;;;;4934453;28;20265;-70
2023/07/04 05:05:22;;;;;;;11.33;3.50;;;;;;;;;;4960621;28;20188;-71
2023/07/04 05:12:00;;;;;;;6.67;3.37;;;;;;;;;;4946390;28;20284;-70
2023/07/04 05:27:27;;;;;;;12.27;4.20;;;;;;;;;;4838604;29;20246;-68
2023/07/04 05:33:53;;;;;;;10.47;4.53;;;;;;;;;;4862158;29;20760;-74
2023/07/04 05:44:30;;;;;;;12.20;4.57;;;;;;;;;;4869206;29;20256;-70
2023/07/04 05:50:56;;;;;;;10.03;4.10;;;;;;;;;;4871703;29;30903;-72
2023/07/04 05:57:22;;;;;;;10.07;3.53;;;;;;;;;;4885171;29;20219;-72
2023/07/04 06:03:48;;;;;;;11.33;4.00;;;;;;;;;;4958837;28;20314;-73
2023/07/04 06:10:14;;;;;;;7.70;3.73;;;;;;;;;;4971419;28;20320;-71
2023/07/04 06:16:40;;;;;;;11.07;3.30;;;;;;;;;;4946416;28;20336;-73
2023/07/04 06:23:07;;;;;;;8.17;3.63;;;;;;;;;;4994446;28;20238;-72
2023/07/04 06:29:33;;;;;;;9.47;3.80;;;;;;;;;;5006507;28;20249;-74
2023/07/04 06:35:59;;;;;;;9.97;3.50;;;;;;;;;;4961124;28;20212;-69
2023/07/04 06:46:37;;;;;;;9.93;3.20;;;;;;;;;;4971820;28;20672;-70
2023/07/04 06:53:04;;;;;;;9.10;3.70;;;;;;;;;;5000277;28;20195;-71
2023/07/04 06:59:30;;;;;;;7.03;3.33;;;;;;;;;;4984645;28;20227;-72
2023/07/04 07:06:02;;;;;;;14.00;3.70;;;;;;;;;;4994442;28;20227;-72
2023/07/04 07:12:31;;;;;;;10.47;3.67;;;;;;;;;;4965864;28;20239;-71
2023/07/04 07:23:38;;;;;;;10.13;3.80;;;;;;;;;;4942308;28;20189;-70
2023/07/04 07:37:37;;;;;;;7.20;3.80;;;;;;;;;;4924753;28;20277;-69
2023/07/04 07:48:09;;;;;;;12.30;3.97;;;;;;;;;;4855095;28;3239137;-73
2023/07/04 07:54:36;;;;;;;13.97;3.60;;;;;;;;;;4985251;28;20567;-72
2023/07/04 08:01:13;;;;;;;9.57;3.80;;;;;;;;;;4958389;28;20753;-69
2023/07/04 08:07:40;;;;;;;14.63;3.53;;;;;;;;;;4981790;28;20221;-71
2023/07/04 08:14:14;;;;;;;10.83;4.53;;;;;;;;;;4908531;29;20378;-71
2023/07/04 08:20:58;;;;;;;11.17;4.63;;;;;;;;;;4939672;28;20245;-72
2023/07/04 08:27:36;;;;;;;9.40;4.13;;;;;;;;;;4974327;28;20276;-72
2023/07/04 08:34:02;;;;;;;9.90;4.50;;;;;;;;;;4977963;28;20179;-73
2023/07/04 08:40:30;;;;;;;6.60;3.50;;;;;;;;;;4965156;28;20730;-68
2023/07/04 08:51:07;;;;;;;9.87;3.87;;;;;;;;;;4935773;28;20327;-73
2023/07/04 08:57:32;;;;;;;8.77;4.10;;;;;;;;;;4952518;28;20826;-71
2023/07/04 09:11:34;;;;;;;13.70;3.63;;;;;;;;;;4966492;28;20299;-71
2023/07/04 09:18:00;;;;;;;11.63;3.90;;;;;;;;;;4975258;28;20178;-78
2023/07/04 09:24:49;;;;;;;9.73;3.93;;;;;;;;;;4964702;28;20211;-72
2023/07/04 09:31:17;;;;;;;8.73;3.40;;;;;;;;;;4947070;29;20295;-80
2023/07/04 09:37:53;;;;;;;7.20;3.93;;;;;;;;;;4978291;28;20251;-75
2023/07/04 09:53:08;;;;;;;5.97;3.00;;;;;;;;;;4936035;29;20970;-75
2023/07/04 10:03:59;;;;;;;8.43;3.27;;;;;;;;;;4902150;29;20841;-72
2023/07/04 10:10:29;;;;;;;8.22;3.23;;;;;;;;;;4887059;28;3840184;-74
2023/07/04 10:16:58;;;;;;;5.37;2.30;;;;;;;;;;4992634;28;20287;-76
2023/07/04 10:24:03;;;;;;;5.73;2.47;;;;;;;;;;4971740;28;20238;-70
2023/07/04 10:30:31;;;;;;;4.40;2.53;;;;;;;;;;4975164;28;20213;-77
2023/07/04 10:36:57;;;;;;;4.77;1.87;;;;;;;;;;4990342;28;20212;-81
2023/07/04 10:43:29;;;;;;;4.70;2.00;;;;;;;;;;4973806;28;20350;-80
2023/07/04 10:54:02;;;;;;;4.97;1.93;;;;;;;;;;4993669;28;20235;-78
2023/07/04 11:00:36;;;;;;;3.50;1.90;;;;;;;;;;4989344;28;20264;-73
2023/07/04 11:07:04;;;;;;;3.20;1.70;;;;;;;;;;4991529;28;20707;-74
2023/07/04 11:13:30;;;;;;;3.07;1.40;;;;;;;;;;5002649;28;20558;-72
2023/07/04 11:20:12;;;;;;;4.63;2.37;;;;;;;;;;5003645;28;20188;-74
2023/07/04 11:31:05;;;;;;;3.23;1.60;;;;;;;;;;4926640;29;20209;-71
2023/07/04 11:41:42;;;;;;;3.40;1.80;;;;;;;;;;4925234;29;20198;-76
2023/07/04 11:48:11;;;;;;;5.37;1.67;;;;;;;;;;4935455;28;20692;-73
2023/07/04 11:58:36;;;;;;;3.13;1.00;;;;;;;;;;4927475;29;20260;-77
2023/07/04 12:04:56;;;;;;;5.27;1.20;;;;;;;;;;4938090;28;20303;-81
2023/07/04 12:11:26;;;;;;;3.90;1.20;;;;;;;;;;4978871;28;20872;-77
2023/07/04 12:17:58;;;;;;;2.40;1.00;;;;;;;;;;4983335;28;20300;-78
2023/07/04 12:28:56;;;;;;;2.60;1.10;;;;;;;;;;4890980;28;20270;-76
2023/07/04 12:39:23;;;;;;;2.63;0.90;;;;;;;;;;4962297;28;20225;-75
2023/07/04 12:49:54;;;;;;;2.00;0.90;;;;;;;;;;4897332;29;20286;-73
2023/07/04 12:56:22;;;;;;;2.50;1.10;;;;;;;;;;4907348;29;20310;-75
2023/07/04 13:02:48;;;;;;;3.27;1.00;;;;;;;;;;4909200;29;20673;-74
2023/07/04 13:09:15;;;;;;;2.17;0.80;;;;;;;;;;4908206;29;20186;-74
2023/07/04 13:15:40;;;;;;;3.83;0.80;;;;;;;;;;4908312;29;20187;-73
2023/07/04 13:22:18;;;;;;;3.30;0.80;;;;;;;;;;4977670;28;20276;-68
2023/07/04 13:28:55;;;;;;;2.03;0.83;;;;;;;;;;4968431;28;20212;-72
2023/07/04 13:35:41;;;;;;;2.13;1.00;;;;;;;;;;4977846;28;20656;-73
2023/07/04 13:46:05;;;;;;;1.80;0.80;;;;;;;;;;4984048;28;20236;-77
2023/07/04 13:56:36;;;;;;;0.97;0.60;;;;;;;;;;4965562;28;20188;-75
2023/07/04 14:03:28;;;;;;;0.87;0.77;;;;;;;;;;4999617;28;20222;-77
2023/07/04 14:15:02;;;;;;;1.90;0.70;;;;;;;;;;4889006;29;20237;-73
2023/07/04 14:26:16;;;;;;;1.53;0.90;;;;;;;;;;4943118;28;20652;-73
2023/07/04 14:32:46;;;;;;;0.73;0.60;;;;;;;;;;4937975;28;20843;-73
2023/07/04 14:39:13;;;;;;;1.90;0.70;;;;;;;;;;4949513;28;20262;-72
2023/07/04 14:45:38;;;;;;;4.00;0.90;;;;;;;;;;4953357;29;20193;-72
2023/07/04 14:56:09;;;;;;;2.30;0.87;;;;;;;;;;5009024;28;20187;-72
2023/07/04 15:02:29;;;;;;;3.03;0.80;;;;;;;;;;5010420;28;20184;-72
2023/07/04 15:08:56;;;;;;;2.30;0.80;;;;;;;;;;5009663;28;20567;-73
2023/07/04 15:15:22;;;;;;;4.60;0.93;;;;;;;;;;5008329;28;20552;-72
2023/07/04 15:21:48;;;;;;;2.70;1.17;;;;;;;;;;5013009;28;20303;-72
2023/07/04 15:28:14;;;;;;;3.40;1.10;;;;;;;;;;5002052;28;20229;-72
2023/07/04 15:34:40;;;;;;;2.50;1.10;;;;;;;;;;5012636;28;20183;-72
2023/07/04 15:41:07;;;;;;;2.27;1.00;;;;;;;;;;5012312;28;20278;-71
2023/07/04 15:48:10;;;;;;;5.13;1.37;;;;;;;;;;4991976;28;20180;-71
2023/07/04 15:58:51;;;;;;;1.30;0.60;;;;;;;;;;5008944;28;20630;-71
2023/07/04 16:05:18;;;;;;;2.77;0.90;;;;;;;;;;4989523;28;20221;-70
2023/07/04 16:11:44;;;;;;;3.97;1.23;;;;;;;;;;5006307;28;20235;-71
2023/07/04 16:18:11;;;;;;;2.93;0.80;;;;;;;;;;5008360;28;20203;-72
2023/07/04 16:24:38;;;;;;;1.87;0.90;;;;;;;;;;4995103;28;20592;-71
2023/07/04 16:31:06;;;;;;;35.43;4.27;;;;;;;;;;5007754;28;20202;-61
2023/07/04 16:37:33;;;;;;;4.17;1.10;;;;;;;;;;5001908;28;20220;-62
2023/07/04 16:43:59;;;;;;;3.00;1.27;;;;;;;;;;4997489;28;21060;-60
2023/07/04 16:50:28;;;;;;;1.43;1.10;;;;;;;;;;4992840;28;20202;-60
2023/07/04 17:01:12;;;;;;;3.67;0.93;;;;;;;;;;4999254;28;20246;-61
2023/07/04 17:07:39;;;;;;;3.37;1.03;;;;;;;;;;4997109;28;20248;-61
2023/07/04 17:14:05;;;;;;;3.23;1.00;;;;;;;;;;5007117;28;20211;-61
2023/07/04 17:20:31;;;;;;;1.50;1.10;;;;;;;;;;5006389;28;20182;-70
2023/07/04 17:26:58;;;;;;;4.53;1.27;;;;;;;;;;5003215;28;20171;-71
2023/07/04 17:33:35;;;;;;;3.10;1.73;;;;;;;;;;5007922;28;20202;-71
2023/07/04 17:40:03;;;;;;;4.53;1.53;;;;;;;;;;5004670;28;20175;-67
2023/07/04 17:46:30;;;;;;;3.40;1.40;;;;;;;;;;4987777;28;20789;-65
2023/07/04 18:01:27;;;;;;;5.60;2.10;;;;;;;;;;4948990;29;20192;-67
2023/07/04 18:07:48;;;;;;;6.63;1.67;;;;;;;;;;4941483;29;20221;-61
2023/07/04 18:18:19;;;;;;;4.47;1.60;;;;;;;;;;4879099;29;20227;-67
2023/07/04 18:24:46;;;;;;;4.13;1.80;;;;;;;;;;4977278;28;20336;-70
2023/07/04 18:31:14;;;;;;;3.70;2.20;;;;;;;;;;4970161;28;20301;-67
2023/07/04 18:37:40;;;;;;;6.50;1.90;;;;;;;;;;4984360;28;20254;-67
2023/07/04 18:44:09;;;;;;;3.77;1.93;;;;;;;;;;4989054;28;20171;-68
2023/07/04 18:50:36;;;;;;;3.37;2.10;;;;;;;;;;4984356;28;20184;-71
2023/07/04 19:01:18;;;;;;;3.33;2.17;;;;;;;;;;4937633;29;20249;-68
2023/07/04 19:12:27;;;;;;;3.00;2.30;;;;;;;;;;4802905;29;20282;-70
2023/07/04 19:23:38;;;;;;;9.90;5.37;;;;;;;;;;4778365;29;20271;-69
2023/07/04 19:29:58;;;;;;;5.90;4.07;;;;;;;;;;4788804;29;20240;-69
2023/07/04 19:36:25;;;;;;;3.90;2.67;;;;;;;;;;4850234;29;20704;-68
2023/07/04 19:42:52;;;;;;;4.47;2.57;;;;;;;;;;4924752;29;20194;-67
2023/07/04 19:49:19;;;;;;;5.70;2.90;;;;;;;;;;4992858;28;20178;-67
2023/07/04 19:55:45;;;;;;;5.53;2.97;;;;;;;;;;4986517;28;20730;-67
2023/07/04 20:06:24;;;;;;;5.33;2.77;;;;;;;;;;4986470;28;20180;-67
2023/07/04 20:12:50;;;;;;;4.00;2.57;;;;;;;;;;4947940;28;20216;-67
2023/07/04 20:19:16;;;;;;;3.27;2.40;;;;;;;;;;4947783;29;20725;-67
2023/07/04 20:25:44;;;;;;;4.90;2.70;;;;;;;;;;4969583;28;20281;-67
2023/07/04 20:32:10;;;;;;;5.67;2.60;;;;;;;;;;4969377;28;20736;-67
2023/07/04 20:38:39;;;;;;;3.87;2.37;;;;;;;;;;4969591;28;20205;-67
2023/07/04 20:45:06;;;;;;;4.47;2.90;;;;;;;;;;4949890;29;20176;-68
2023/07/04 20:51:33;;;;;;;6.43;3.13;;;;;;;;;;4950021;29;20884;-67
2023/07/04 20:58:00;;;;;;;4.63;3.50;;;;;;;;;;4968962;28;20192;-67
2023/07/04 21:08:45;;;;;;;6.60;3.83;;;;;;;;;;4987953;28;20268;-67
2023/07/04 21:15:12;;;;;;;5.20;3.53;;;;;;;;;;4968837;28;20184;-67
2023/07/04 21:21:38;;;;;;;4.97;3.37;;;;;;;;;;4949842;29;20181;-67
2023/07/04 21:28:04;;;;;;;5.13;3.30;;;;;;;;;;4949148;29;20248;-67
2023/07/04 21:34:33;;;;;;;6.27;3.17;;;;;;;;;;4949486;29;20200;-67
2023/07/04 21:41:01;;;;;;;5.80;2.87;;;;;;;;;;4968600;28;20200;-67
2023/07/04 21:47:30;;;;;;;6.37;3.13;;;;;;;;;;4968572;28;20156;-67
2023/07/04 21:53:56;;;;;;;5.03;3.50;;;;;;;;;;4968297;28;20516;-67
2023/07/04 22:08:53;;;;;;;6.83;3.43;;;;;;;;;;4946500;29;20198;-68
2023/07/04 22:15:13;;;;;;;4.73;3.00;;;;;;;;;;4946637;29;20181;-68
2023/07/04 22:25:43;;;;;;;8.50;3.30;;;;;;;;;;4926883;29;20163;-68
2023/07/04 22:32:10;;;;;;;4.87;2.87;;;;;;;;;;4968285;28;20244;-68
2023/07/04 22:38:37;;;;;;;5.50;2.67;;;;;;;;;;4967979;28;20631;-68
2023/07/04 22:45:03;;;;;;;6.23;2.90;;;;;;;;;;4989829;28;20310;-68
2023/07/04 22:51:30;;;;;;;3.50;2.50;;;;;;;;;;4991080;28;20171;-68
2023/07/04 22:57:56;;;;;;;5.30;2.83;;;;;;;;;;4974766;28;20866;-67
2023/07/04 23:08:22;;;;;;;3.60;2.60;;;;;;;;;;4963968;28;20284;-67
2023/07/04 23:15:01;;;;;;;3.27;2.53;;;;;;;;;;4988909;28;20219;-68
2023/07/04 23:22:03;;;;;;;4.17;2.40;;;;;;;;;;4990315;28;20207;-68
2023/07/04 23:28:29;;;;;;;3.10;2.57;;;;;;;;;;5009824;28;20252;-68
2023/07/04 23:35:07;;;;;;;4.10;2.50;;;;;;;;;;5007236;28;20194;-68
2023/07/04 23:41:36;;;;;;;4.10;2.70;;;;;;;;;;4990043;28;20273;-68
2023/07/04 23:48:39;;;;;;;3.20;2.73;;;;;;;;;;4990075;28;21089;-68
2023/07/04 23:55:41;;;;;;;3.07;2.30;;;;;;;;;;4969029;28;20224;-68
